createdAt,value
2022-11-21T00:01:16.625Z,16.30
2022-11-21T00:03:44.474Z,16.33
2022-11-21T00:06:12.360Z,16.80
2022-11-21T00:08:40.165Z,18.10
2022-11-21T00:11:07.968Z,15.53
2022-11-21T00:13:37.333Z,17.10
2022-11-21T00:16:06.286Z,16.17
2022-11-21T00:18:34.793Z,15.90
2022-11-21T00:21:06.730Z,16.87
2022-11-21T00:23:34.912Z,16.63
2022-11-21T00:26:05.558Z,17.77
2022-11-21T00:28:33.421Z,18.17
2022-11-21T00:31:02.775Z,16.73
2022-11-21T00:33:30.635Z,13.53
2022-11-21T00:35:58.449Z,15.53
2022-11-21T00:38:27.966Z,17.27
2022-11-21T00:40:55.774Z,21.60
2022-11-21T00:43:23.563Z,17.60
2022-11-21T00:45:51.330Z,16.50
2022-11-21T00:48:20.486Z,17.37
2022-11-21T00:50:50.726Z,17.60
2022-11-21T00:53:18.648Z,17.40
2022-11-21T00:55:46.491Z,14.57
2022-11-21T00:58:14.277Z,17.20
2022-11-21T01:00:42.220Z,15.23
2022-11-21T01:03:10.096Z,18.53
2022-11-21T01:05:39.251Z,18.27
2022-11-21T01:08:07.049Z,15.73
2022-11-21T01:10:35.502Z,15.93
2022-11-21T01:13:03.384Z,20.00
2022-11-21T01:15:31.230Z,17.67
2022-11-21T01:17:59.080Z,18.03
2022-11-21T01:20:26.990Z,16.40
2022-11-21T01:22:56.138Z,20.07
2022-11-21T01:25:23.983Z,16.63
2022-11-21T01:27:51.809Z,18.27
2022-11-21T01:30:19.822Z,17.30
2022-11-21T01:32:49.573Z,17.03
2022-11-21T01:35:17.383Z,18.40
2022-11-21T01:37:48.236Z,18.90
2022-11-21T01:40:17.793Z,17.43
2022-11-21T01:42:53.546Z,18.60
2022-11-21T01:45:53.859Z,18.67
2022-11-21T01:48:27.013Z,18.23
2022-11-21T01:50:57.445Z,20.97
2022-11-21T01:53:25.910Z,15.53
2022-11-21T01:55:55.265Z,18.70
2022-11-21T01:58:24.578Z,18.47
2022-11-21T02:00:53.623Z,20.80
2022-11-21T02:03:27.595Z,23.30
2022-11-21T02:05:57.138Z,18.40
2022-11-21T02:08:27.331Z,20.93
2022-11-21T02:11:06.556Z,20.10
2022-11-21T02:13:34.426Z,18.47
2022-11-21T02:16:03.061Z,16.77
2022-11-21T02:18:30.916Z,19.73
2022-11-21T02:21:04.421Z,16.63
2022-11-21T02:23:40.179Z,16.63
2022-11-21T02:26:09.496Z,15.30
2022-11-21T02:28:37.772Z,17.10
2022-11-21T02:31:05.596Z,15.03
2022-11-21T02:33:33.394Z,19.70
2022-11-21T02:36:03.544Z,15.10
2022-11-21T02:38:34.405Z,15.70
2022-11-21T02:41:07.694Z,16.63
2022-11-21T02:43:40.674Z,17.67
2022-11-21T02:46:08.514Z,15.83
2022-11-21T02:48:38.265Z,20.07
2022-11-21T02:51:06.121Z,17.60
2022-11-21T02:53:34.144Z,20.50
2022-11-21T02:56:01.961Z,18.83
2022-11-21T02:58:29.989Z,18.60
2022-11-21T03:00:59.291Z,20.80
2022-11-21T03:03:27.199Z,17.50
2022-11-21T03:05:55.918Z,22.33
2022-11-21T03:08:24.025Z,17.70
2022-11-21T03:10:51.895Z,20.00
2022-11-21T03:13:19.799Z,18.00
2022-11-21T03:15:47.647Z,16.77
2022-11-21T03:18:16.777Z,19.67
2022-11-21T03:20:44.624Z,17.97
2022-11-21T03:23:12.464Z,19.10
2022-11-21T03:25:40.292Z,19.40
2022-11-21T03:28:09.142Z,18.53
2022-11-21T03:30:37.049Z,16.97
2022-11-21T03:33:04.873Z,20.33
2022-11-21T03:35:34.066Z,17.97
2022-11-21T03:38:01.918Z,17.23
2022-11-21T03:40:29.729Z,19.50
2022-11-21T03:42:57.506Z,19.83
2022-11-21T03:45:25.341Z,18.93
2022-11-21T03:47:53.353Z,16.67
2022-11-21T03:50:21.606Z,17.97
2022-11-21T03:52:50.873Z,17.80
2022-11-21T03:55:18.808Z,17.93
2022-11-21T03:57:46.661Z,23.67
2022-11-21T04:00:15.878Z,23.57
2022-11-21T04:02:43.657Z,19.27
2022-11-21T04:05:11.481Z,23.03
2022-11-21T04:07:39.366Z,18.77
2022-11-21T04:10:09.300Z,23.03
2022-11-21T04:12:37.094Z,22.50
2022-11-21T04:15:10.677Z,20.00
2022-11-21T04:17:41.115Z,19.30
2022-11-21T04:20:09.863Z,21.57
2022-11-21T04:22:37.722Z,23.23
2022-11-21T04:25:06.133Z,23.27
2022-11-21T04:27:35.260Z,21.70
2022-11-21T04:30:03.075Z,21.63
2022-11-21T04:32:30.860Z,22.33
2022-11-21T04:34:58.688Z,21.90
2022-11-21T04:37:26.649Z,21.30
2022-11-21T04:39:54.472Z,26.03
2022-11-21T04:42:22.299Z,22.27
2022-11-21T04:44:51.525Z,20.40
2022-11-21T04:47:19.306Z,22.37
2022-11-21T04:49:47.094Z,22.63
2022-11-21T04:52:14.894Z,21.53
2022-11-21T04:54:42.694Z,20.30
2022-11-21T04:57:10.522Z,17.70
2022-11-21T04:59:38.322Z,22.57
2022-11-21T05:02:07.512Z,17.10
2022-11-21T05:04:35.345Z,23.53
2022-11-21T05:07:03.202Z,21.47
2022-11-21T05:09:31.055Z,21.67
2022-11-21T05:12:16.321Z,17.80
2022-11-21T05:14:44.150Z,16.47
2022-11-21T05:17:13.294Z,19.07
2022-11-21T05:19:41.206Z,15.83
2022-11-21T05:22:08.992Z,19.90
2022-11-21T05:24:37.473Z,19.00
2022-11-21T05:27:05.776Z,19.30
2022-11-21T05:29:33.631Z,17.07
2022-11-21T05:32:01.461Z,20.60
2022-11-21T05:34:30.861Z,18.00
2022-11-21T05:36:59.197Z,17.20
2022-11-21T05:39:27.707Z,18.80
2022-11-21T05:42:01.313Z,20.70
2022-11-21T05:44:29.884Z,18.53
2022-11-21T05:46:57.937Z,20.63
2022-11-21T05:49:25.807Z,17.33
2022-11-21T05:51:54.992Z,20.20
2022-11-21T05:54:22.799Z,19.97
2022-11-21T05:56:50.654Z,18.47
2022-11-21T05:59:18.447Z,18.90
2022-11-21T06:02:04.003Z,19.73
2022-11-21T06:04:31.861Z,18.43
2022-11-21T06:07:01.123Z,21.30
2022-11-21T06:09:28.985Z,18.17
2022-11-21T06:11:56.791Z,15.43
2022-11-21T06:14:24.679Z,18.67
2022-11-21T06:16:52.648Z,21.30
2022-11-21T06:19:20.445Z,20.07
2022-11-21T06:21:48.294Z,15.60
2022-11-21T06:24:24.842Z,18.23
2022-11-21T06:26:52.707Z,18.77
2022-11-21T06:29:22.143Z,18.87
2022-11-21T06:31:50.680Z,20.17
2022-11-21T06:34:18.672Z,20.80
2022-11-21T06:36:46.488Z,17.47
2022-11-21T06:39:14.307Z,20.73
2022-11-21T06:41:43.450Z,21.77
2022-11-21T06:44:11.321Z,19.30
2022-11-21T06:46:39.152Z,19.90
2022-11-21T06:49:06.955Z,23.27
2022-11-21T06:51:34.741Z,21.00
2022-11-21T06:54:02.670Z,23.03
2022-11-21T06:56:32.509Z,23.70
2022-11-21T06:59:01.712Z,24.10
2022-11-21T07:01:29.678Z,25.00
2022-11-21T07:03:57.852Z,21.40
2022-11-21T07:06:25.910Z,21.37
2022-11-21T07:09:25.525Z,23.53
2022-11-21T07:11:43.174Z,21.20
2022-11-21T07:14:11.589Z,23.13
2022-11-21T07:16:39.730Z,22.30
2022-11-21T07:19:07.548Z,19.33
2022-11-21T07:21:35.377Z,19.77
2022-11-21T07:24:03.161Z,22.17
2022-11-21T07:26:30.983Z,26.37
2022-11-21T07:28:59.864Z,24.53
2022-11-21T07:31:29.066Z,24.87
2022-11-21T07:33:56.867Z,26.50
2022-11-21T07:36:25.963Z,27.63
2022-11-21T07:38:53.764Z,21.70
2022-11-21T07:41:22.728Z,16.90
2022-11-21T07:43:50.577Z,18.77
2022-11-21T07:46:18.579Z,24.80
2022-11-21T07:48:47.744Z,22.97
2022-11-21T07:51:15.590Z,21.60
2022-11-21T07:53:43.503Z,23.57
2022-11-21T07:56:11.328Z,19.50
2022-11-21T07:58:39.190Z,17.43
2022-11-21T08:01:07.738Z,16.83
2022-11-21T08:03:35.968Z,20.47
2022-11-21T08:06:06.263Z,14.50
2022-11-21T08:08:34.151Z,18.53
2022-11-21T08:11:05.646Z,20.87
2022-11-21T08:13:33.500Z,18.43
2022-11-21T08:16:03.652Z,14.90
2022-11-21T08:18:31.519Z,15.90
2022-11-21T08:21:02.143Z,14.33
2022-11-21T08:23:31.893Z,17.63
2022-11-21T08:25:59.958Z,17.60
2022-11-21T08:28:28.160Z,18.43
2022-11-21T08:30:55.990Z,13.60
2022-11-21T08:33:23.768Z,14.40
2022-11-21T08:35:51.549Z,13.70
2022-11-21T08:38:19.368Z,14.97
2022-11-21T08:41:11.123Z,16.83
2022-11-21T08:43:42.654Z,14.30
2022-11-21T08:46:10.493Z,17.63
2022-11-21T08:48:38.295Z,12.13
2022-11-21T08:51:06.106Z,13.37
2022-11-21T08:53:33.923Z,12.10
2022-11-21T08:56:04.559Z,13.10
2022-11-21T08:58:32.542Z,13.20
2022-11-21T09:01:00.816Z,12.20
2022-11-21T09:03:31.388Z,16.27
2022-11-21T09:05:59.739Z,16.60
2022-11-21T09:08:28.031Z,15.53
2022-11-21T09:10:55.819Z,12.57
2022-11-21T09:13:25.014Z,14.57
2022-11-21T09:16:10.687Z,13.53
2022-11-21T09:18:38.517Z,14.30
2022-11-21T09:21:06.371Z,14.10
2022-11-21T09:23:34.171Z,14.17
2022-11-21T09:26:02.211Z,14.27
2022-11-21T09:28:31.396Z,14.60
2022-11-21T09:30:59.320Z,16.17
2022-11-21T09:33:27.189Z,14.40
2022-11-21T09:35:55.026Z,15.27
2022-11-21T09:38:24.378Z,15.30
2022-11-21T09:40:52.472Z,13.50
2022-11-21T09:43:38.215Z,16.00
2022-11-21T09:46:10.942Z,14.43
2022-11-21T09:48:48.522Z,12.60
2022-11-21T09:51:18.145Z,12.17
2022-11-21T09:53:55.049Z,15.50
2022-11-21T09:56:24.308Z,12.47
2022-11-21T09:59:07.737Z,19.03
2022-11-21T10:01:35.777Z,12.07
2022-11-21T10:04:04.619Z,13.07
2022-11-21T10:06:37.431Z,10.53
2022-11-21T10:09:09.092Z,12.03
2022-11-21T10:12:01.247Z,12.53
2022-11-21T10:14:45.934Z,12.57
2022-11-21T10:17:23.228Z,11.90
2022-11-21T10:20:06.863Z,14.47
2022-11-21T10:22:49.261Z,12.70
2022-11-21T10:25:27.253Z,11.80
2022-11-21T10:28:01.081Z,12.27
2022-11-21T10:30:30.742Z,15.77
2022-11-21T10:33:03.210Z,10.83
2022-11-21T10:35:39.599Z,12.37
2022-11-21T10:38:19.919Z,11.80
2022-11-21T10:40:51.712Z,11.87
2022-11-21T10:43:48.307Z,12.87
2022-11-21T10:46:17.528Z,11.57
2022-11-21T10:48:52.091Z,13.13
2022-11-21T10:51:34.544Z,12.20
2022-11-21T10:54:25.877Z,13.80
2022-11-21T10:56:55.742Z,11.77
2022-11-21T10:59:30.586Z,11.93
2022-11-21T11:02:01.790Z,11.50
2022-11-21T11:04:41.651Z,11.77
2022-11-21T11:07:25.532Z,10.20
2022-11-21T11:09:54.146Z,11.47
2022-11-21T11:12:46.145Z,11.30
2022-11-21T11:15:20.622Z,12.90
2022-11-21T11:17:54.096Z,11.53
2022-11-21T11:20:35.304Z,15.33
2022-11-21T11:23:27.618Z,11.00
2022-11-21T11:25:57.607Z,15.33
2022-11-21T11:28:25.944Z,12.97
2022-11-21T11:30:55.853Z,12.33
2022-11-21T11:33:36.851Z,15.77
2022-11-21T11:36:26.903Z,14.73
2022-11-21T11:38:57.513Z,14.20
2022-11-21T11:42:02.326Z,14.50
2022-11-21T11:44:59.138Z,12.10
2022-11-21T11:47:35.170Z,15.13
2022-11-21T11:50:13.342Z,13.40
2022-11-21T11:52:51.963Z,12.40
2022-11-21T11:55:24.046Z,10.00
2022-11-21T11:57:54.971Z,13.67
2022-11-21T12:00:31.582Z,12.87
2022-11-21T12:03:03.088Z,11.67
2022-11-21T12:05:33.301Z,13.17
2022-11-21T12:11:23.812Z,11.10
2022-11-21T12:13:56.690Z,16.30
2022-11-21T12:16:27.592Z,13.27
2022-11-21T12:19:00.969Z,13.60
2022-11-21T12:21:30.494Z,15.10
2022-11-21T12:23:59.855Z,12.90
2022-11-21T12:26:40.408Z,16.73
2022-11-21T12:29:20.380Z,13.43
2022-11-21T12:32:04.244Z,12.80
2022-11-21T12:34:50.516Z,14.60
2022-11-21T12:37:30.810Z,13.40
2022-11-21T12:40:16.845Z,16.53
2022-11-21T12:42:55.944Z,10.90
2022-11-21T12:45:32.598Z,13.90
2022-11-21T12:48:41.681Z,15.10
2022-11-21T12:51:39.337Z,12.37
2022-11-21T12:54:33.675Z,12.33
2022-11-21T12:57:10.114Z,13.27
2022-11-21T12:59:51.794Z,12.13
2022-11-21T13:02:31.018Z,13.27
2022-11-21T13:05:01.212Z,10.43
2022-11-21T13:07:31.362Z,13.27
2022-11-21T13:10:03.494Z,14.10
2022-11-21T13:12:39.413Z,11.17
2022-11-21T13:15:18.751Z,9.40
2022-11-21T13:17:51.934Z,9.10
2022-11-21T13:20:25.556Z,11.03
2022-11-21T13:22:56.557Z,10.60
2022-11-21T13:25:48.034Z,12.17
2022-11-21T13:28:39.678Z,10.53
2022-11-21T13:31:32.226Z,10.23
2022-11-21T13:34:00.705Z,11.27
2022-11-21T13:36:43.962Z,12.83
2022-11-21T13:39:28.272Z,13.83
2022-11-21T13:42:36.013Z,10.30
2022-11-21T13:45:43.462Z,12.73
2022-11-21T13:48:34.555Z,11.80
2022-11-21T13:51:17.523Z,9.43
2022-11-21T13:54:18.779Z,11.87
2022-11-21T13:57:06.114Z,10.13
2022-11-21T13:59:54.106Z,11.50
2022-11-21T14:02:55.395Z,12.40
2022-11-21T14:05:46.146Z,9.90
2022-11-21T14:08:19.515Z,10.33
2022-11-21T14:10:49.496Z,9.70
2022-11-21T14:13:28.989Z,10.17
2022-11-21T14:16:19.200Z,9.77
2022-11-21T14:18:48.442Z,9.50
2022-11-21T14:21:22.066Z,9.03
2022-11-21T14:23:49.937Z,9.63
2022-11-21T14:26:21.170Z,9.63
2022-11-21T14:28:49.444Z,10.50
2022-11-21T14:31:19.297Z,11.80
2022-11-21T14:33:48.159Z,11.80
2022-11-21T14:36:18.128Z,12.70
2022-11-21T14:39:07.587Z,11.23
2022-11-21T14:41:38.068Z,12.00
2022-11-21T14:44:18.872Z,19.20
2022-11-21T14:46:48.652Z,12.10
2022-11-21T14:49:25.622Z,11.73
2022-11-21T14:52:02.113Z,13.10
2022-11-21T14:54:33.607Z,12.90
2022-11-21T14:57:03.718Z,14.60
2022-11-21T14:59:34.129Z,15.83
2022-11-21T15:02:12.328Z,15.13
2022-11-21T15:04:42.249Z,10.70
2022-11-21T15:07:19.857Z,12.77
2022-11-21T15:12:45.842Z,10.67
2022-11-21T15:15:23.536Z,10.50
2022-11-21T15:18:25.914Z,11.83
2022-11-21T15:20:49.083Z,13.43
2022-11-21T15:23:27.546Z,12.40
2022-11-21T15:26:00.717Z,11.77
2022-11-21T15:28:29.970Z,12.70
2022-11-21T15:31:17.876Z,12.63
2022-11-21T15:37:02.535Z,11.30
2022-11-21T15:39:30.365Z,12.53
2022-11-21T15:42:38.948Z,11.40
2022-11-21T15:45:25.361Z,11.53
2022-11-21T15:47:53.411Z,12.50
2022-11-21T15:50:24.295Z,11.03
2022-11-21T15:52:53.413Z,10.57
2022-11-21T15:55:23.529Z,10.50
2022-11-21T15:57:52.771Z,12.20
2022-11-21T16:00:20.775Z,9.47
2022-11-21T16:02:48.598Z,11.10
2022-11-21T16:05:17.358Z,10.33
2022-11-21T16:07:45.422Z,13.30
2022-11-21T16:10:19.918Z,12.25
2022-11-21T16:12:51.955Z,13.80
2022-11-21T16:15:19.793Z,10.53
2022-11-21T16:17:47.973Z,12.87
2022-11-21T16:20:16.152Z,12.37
2022-11-21T16:22:47.759Z,12.33
2022-11-21T16:25:16.084Z,11.87
2022-11-21T16:27:43.998Z,14.70
2022-11-21T16:30:14.589Z,13.10
2022-11-21T16:32:42.529Z,11.03
2022-11-21T16:35:10.815Z,10.47
2022-11-21T16:37:38.637Z,11.00
2022-11-21T16:40:07.859Z,11.10
2022-11-21T16:42:35.658Z,12.90
2022-11-21T16:45:03.534Z,13.83
2022-11-21T16:47:32.712Z,12.30
2022-11-21T16:50:00.525Z,13.77
2022-11-21T16:52:28.363Z,22.03
2022-11-21T16:54:56.224Z,17.80
2022-11-21T16:57:24.060Z,14.53
2022-11-21T16:59:51.885Z,14.10
2022-11-21T17:02:19.730Z,16.30
2022-11-21T17:04:48.892Z,14.47
2022-11-21T17:07:19.329Z,14.53
2022-11-21T17:09:49.201Z,14.03
2022-11-21T17:12:17.167Z,16.60
2022-11-21T17:14:45.371Z,15.67
2022-11-21T17:17:13.152Z,14.17
2022-11-21T17:19:41.043Z,15.47
2022-11-21T17:22:10.462Z,14.20
2022-11-21T17:24:38.322Z,14.30
2022-11-21T17:27:06.111Z,13.90
2022-11-21T17:29:33.897Z,16.45
2022-11-21T17:32:01.686Z,16.00
2022-11-21T17:34:33.003Z,15.17
2022-11-21T17:37:01.171Z,15.80
2022-11-21T17:39:30.764Z,21.23
2022-11-21T17:41:59.865Z,14.67
2022-11-21T17:44:27.950Z,15.10
2022-11-21T17:46:59.161Z,15.17
2022-11-21T17:49:29.947Z,17.00
2022-11-21T17:51:57.924Z,16.67
2022-11-21T17:54:26.072Z,14.67
2022-11-21T17:56:57.163Z,16.03
2022-11-21T17:59:25.129Z,15.60
2022-11-21T18:01:53.107Z,17.70
2022-11-21T18:04:21.536Z,14.43
2022-11-21T18:06:49.565Z,16.80
2022-11-21T18:09:17.837Z,14.77
2022-11-21T18:11:46.189Z,15.40
2022-11-21T18:14:15.607Z,16.93
2022-11-21T18:16:50.684Z,15.33
2022-11-21T18:19:20.972Z,14.57
2022-11-21T18:21:48.869Z,16.63
2022-11-21T18:24:16.693Z,15.53
2022-11-21T18:26:44.516Z,14.60
2022-11-21T18:29:35.234Z,15.73
2022-11-21T18:32:01.876Z,14.00
2022-11-21T18:34:29.698Z,13.70
2022-11-21T18:36:57.571Z,13.67
2022-11-21T18:39:26.963Z,17.60
2022-11-21T18:41:54.966Z,15.07
2022-11-21T18:44:22.960Z,17.00
2022-11-21T18:46:51.395Z,17.13
2022-11-21T18:49:20.538Z,18.80
2022-11-21T18:51:48.866Z,20.27
2022-11-21T18:54:17.035Z,17.83
2022-11-21T18:56:44.887Z,19.03
2022-11-21T18:59:12.694Z,17.70
2022-11-21T19:01:40.626Z,17.30
2022-11-21T19:04:09.290Z,17.00
2022-11-21T19:06:38.586Z,18.70
2022-11-21T19:09:08.095Z,20.53
2022-11-21T19:11:36.123Z,16.60
2022-11-21T19:14:04.045Z,18.73
2022-11-21T19:16:33.988Z,22.70
2022-11-21T19:21:51.676Z,22.40
2022-11-21T19:24:19.701Z,22.77
2022-11-21T19:26:50.155Z,23.10
2022-11-21T19:29:18.389Z,19.53
2022-11-21T19:31:46.423Z,20.33
2022-11-21T19:34:14.802Z,22.13
2022-11-21T19:36:43.133Z,20.47
2022-11-21T19:39:12.612Z,20.77
2022-11-21T19:41:41.327Z,18.03
2022-11-21T19:44:09.411Z,20.80
2022-11-21T19:46:39.047Z,19.00
2022-11-21T19:49:08.475Z,18.63
2022-11-21T19:51:38.148Z,21.13
2022-11-21T19:54:07.514Z,26.70
2022-11-21T19:56:37.685Z,24.17
2022-11-21T19:59:06.120Z,24.33
2022-11-21T20:01:36.187Z,26.80
2022-11-21T20:04:06.403Z,25.30
2022-11-21T20:06:35.822Z,24.37
2022-11-21T20:09:06.718Z,20.93
2022-11-21T20:11:37.022Z,19.87
2022-11-21T20:14:04.973Z,18.90
2022-11-21T20:16:35.012Z,18.77
2022-11-21T20:19:06.445Z,17.93
2022-11-21T20:21:34.889Z,20.83
2022-11-21T20:24:03.612Z,19.70
2022-11-21T20:26:31.898Z,19.40
2022-11-21T20:29:01.529Z,18.00
2022-11-21T20:31:30.823Z,19.37
2022-11-21T20:34:00.717Z,19.63
2022-11-21T20:36:30.857Z,19.60
2022-11-21T20:39:00.453Z,17.20
2022-11-21T20:41:32.482Z,21.53
2022-11-21T20:46:51.665Z,16.60
2022-11-21T20:49:19.915Z,19.80
2022-11-21T20:53:31.250Z,17.90
2022-11-21T20:54:36.246Z,19.20
2022-11-21T20:57:04.219Z,19.50
2022-11-21T20:59:34.004Z,21.43
2022-11-21T21:02:05.121Z,18.50
2022-11-21T21:04:33.336Z,22.90
2022-11-21T21:07:01.322Z,18.33
2022-11-21T21:09:29.494Z,18.93
2022-11-21T21:11:57.775Z,21.40
2022-11-21T21:14:25.762Z,18.93
2022-11-21T21:16:55.000Z,18.03
2022-11-21T21:19:22.851Z,19.37
2022-11-21T21:21:50.686Z,16.87
2022-11-21T21:24:18.621Z,15.47
2022-11-21T21:26:48.436Z,18.30
2022-11-21T21:29:18.503Z,19.27
2022-11-21T21:31:50.926Z,19.13
2022-11-21T21:34:21.749Z,17.13
2022-11-21T21:36:50.593Z,18.60
2022-11-21T21:39:18.480Z,23.27
2022-11-21T21:41:47.997Z,17.20
2022-11-21T21:44:16.640Z,21.30
2022-11-21T21:46:44.866Z,19.57
2022-11-21T21:49:12.774Z,20.13
2022-11-21T21:51:42.078Z,18.23
2022-11-21T21:54:17.467Z,21.40
2022-11-21T21:56:46.514Z,26.77
2022-11-21T21:59:14.882Z,25.23
2022-11-21T22:01:43.678Z,27.60
2022-11-21T22:04:12.617Z,28.43
2022-11-21T22:06:42.275Z,29.10
2022-11-21T22:09:10.138Z,33.40
2022-11-21T22:11:39.299Z,27.10
2022-11-21T22:14:11.290Z,28.77
2022-11-21T22:16:39.233Z,32.93
2022-11-21T22:19:07.473Z,32.37
2022-11-21T22:21:36.894Z,32.60
2022-11-21T22:24:28.187Z,36.37
2022-11-21T22:26:56.164Z,29.93
2022-11-21T22:29:24.113Z,38.03
2022-11-21T22:31:51.986Z,39.73
2022-11-21T22:34:19.893Z,32.77
2022-11-21T22:36:47.913Z,30.90
2022-11-21T22:39:17.824Z,36.53
2022-11-21T22:41:45.789Z,34.23
2022-11-21T22:44:13.618Z,33.87
2022-11-21T22:46:41.449Z,31.70
2022-11-21T22:49:09.230Z,31.17
2022-11-21T22:51:37.171Z,33.30
2022-11-21T22:54:05.173Z,34.90
2022-11-21T22:56:34.388Z,32.83
2022-11-21T22:59:02.215Z,33.63
2022-11-21T23:01:30.131Z,34.10
2022-11-21T23:03:57.992Z,37.00
2022-11-21T23:06:27.629Z,36.10
2022-11-21T23:08:56.848Z,30.70
2022-11-21T23:11:28.022Z,34.90
2022-11-21T23:13:57.939Z,34.00
2022-11-21T23:16:26.552Z,30.60
2022-11-21T23:18:54.926Z,33.30
2022-11-21T23:21:23.196Z,27.90
2022-11-21T23:23:51.169Z,29.80
2022-11-21T23:26:19.048Z,31.10
2022-11-21T23:28:46.934Z,33.57
2022-11-21T23:31:16.268Z,28.70
2022-11-21T23:33:44.140Z,34.27
2022-11-21T23:36:11.946Z,34.80
2022-11-21T23:38:39.737Z,39.53
2022-11-21T23:41:07.560Z,38.60
2022-11-21T23:43:35.382Z,41.37
2022-11-21T23:46:03.342Z,37.03
2022-11-21T23:48:32.552Z,38.60
2022-11-21T23:51:00.388Z,41.57
2022-11-21T23:53:28.253Z,38.83
2022-11-21T23:55:56.065Z,42.40
2022-11-21T23:58:23.917Z,41.07
